Hoegh Transporter — LAKO7 — position and weather

sailwx.info

Track history (hours):
 
Tides and Currents Weather Stations Pressure Air Temp Water Temp Dewpoint Dewpoint Depression Visibility Wind Speed Wind Dir Waves Ship Positions

Hoegh Transporter

Last reported at 2015-Jun-27 17:22 UTC. Time now 2015-Jul-05 23:20 UTC.
Position N 31°22' E 032°20'.
Warning: this ship's position is 8 days out of date.

Length 199 m; draft 9.5 m.

Type: Cargo ship. MMSI: 257712000.

Date/timePositionNaut miles runAvg speedWind from/ knotsBaromVisibWave heightAir tempDewpointWater temp
2015-Jun-27 17:22N 31°22' E 032°20'0 0.0
2015-Jun-27 11:30N 31°21' E 032°20'0 0.0
2015-Jun-27 10:30N 31°21' E 032°20'0 0.0
2015-Jun-27 09:33N 31°21' E 032°20'0 0.0
2015-Jun-27 07:06N 31°21' E 032°20'0 0.0
2015-Jun-27 06:33N 31°21' E 032°20'0 0.0
2015-Jun-26 16:32N 31°21' E 032°20'4 3.5
2015-Jun-26 15:22N 31°26' E 032°19'1010.6
2015-Jun-26 14:23N 31°33' E 032°10'1416.9
2015-Jun-26 13:33N 31°43' E 031°59'12316.4
2015-Jun-26 06:03N 32°22' E 029°41'45116.3
2015-Jun-25 02:29N 34°39' E 021°06'2016.1
2015-Jun-25 01:14N 34°45' E 020°42'1116.2
2015-Jun-25 00:33N 34°48' E 020°30'1616.3
2015-Jun-24 23:33N 34°53' E 020°11'3316.5
2015-Jun-24 21:33N 35°03' E 019°33'1615.8
2015-Jun-24 20:33N 35°08' E 019°14'1615.8
2015-Jun-24 19:33N 35°13' E 018°56'1816.0
2015-Jun-24 18:24N 35°18' E 018°35'1416.1
2015-Jun-24 17:33N 35°22' E 018°19'1816.6
2015-Jun-24 16:27N 35°28' E 017°57'1517.3
2015-Jun-24 15:34N 35°33' E 017°39'1817.3
2015-Jun-24 14:33N 35°38' E 017°19'1717.1
2015-Jun-24 13:33N 35°43' E 016°59'1716.9
2015-Jun-24 12:33N 35°48' E 016°39'1717.0
2015-Jun-24 11:33N 35°54' E 016°19'1716.7
2015-Jun-24 10:33N 35°59' E 015°59'1716.6
2015-Jun-24 09:33N 36°04' E 015°40'1716.7
2015-Jun-24 08:32N 36°09' E 015°20'1717.0
2015-Jun-24 07:33N 36°13' E 014°60'1717.3
2015-Jun-24 06:33N 36°19' E 014°40'1717.4
2015-Jun-24 05:33N 36°24' E 014°19'1717.1
2015-Jun-24 04:34N 36°29' E 013°59'1717.0
2015-Jun-24 03:33N 36°35' E 013°39'1717.0
2015-Jun-24 02:34N 36°40' E 013°19'1717.1
2015-Jun-24 01:33N 36°45' E 012°58'1717.1
2015-Jun-24 00:34N 36°50' E 012°38'1717.2
2015-Jun-23 23:33N 36°55' E 012°17'1716.7
2015-Jun-23 22:34N 37°01' E 011°58'1716.8
2015-Jun-23 21:33N 37°09' E 011°39'1716.9
2015-Jun-23 20:33N 37°18' E 011°21'1616.3
2015-Jun-23 19:33N 37°25' E 011°02'816.8
2015-Jun-23 19:06N 37°26' E 010°53'40017.0
2015-Jun-22 19:33N 36°56' E 002°32'1616.1
2015-Jun-22 18:33N 36°53' E 002°12'1616.1
2015-Jun-22 17:33N 36°51' E 001°52'1616.0
2015-Jun-22 16:33N 36°48' E 001°33'1616.4
2015-Jun-22 15:33N 36°46' E 001°12'1615.7
2015-Jun-22 14:33N 36°44' E 000°53'1616.1
2015-Jun-22 13:33N 36°42' E 000°33'1616.0
2015-Jun-22 12:33N 36°39' E 000°13'1615.5
2015-Jun-22 11:33N 36°37' W 000°06'1515.0
2015-Jun-22 10:33N 36°35' W 000°24'1515.3
2015-Jun-22 09:33N 36°32' W 000°43'1615.5
2015-Jun-22 08:33N 36°30' W 001°02'4414.6
2015-Jun-22 05:33N 36°24' W 001°56'1414.4
2015-Jun-22 04:33N 36°22' W 002°13'1514.4
2015-Jun-22 03:32N 36°19' W 002°31'1514.8
2015-Jun-22 02:33N 36°17' W 002°49'11316.0
2015-Jun-21 19:30N 36°00' W 005°08'1617.2
2015-Jun-21 18:33N 35°58' W 005°28'3816.9
2015-Jun-21 16:20N 35°54' W 006°14'1417.9
2015-Jun-21 15:33N 35°56' W 006°31'2617.8
2015-Jun-21 14:05N 36°03' W 007°02'917.4
2015-Jun-21 13:33N 36°06' W 007°13'1817.1
2015-Jun-21 12:31N 36°11' W 007°34'1717.5
2015-Jun-21 11:33N 36°15' W 007°54'1717.4
2015-Jun-21 10:33N 36°20' W 008°15'1717.2
2015-Jun-21 09:33N 36°24' W 008°35'1717.1
2015-Jun-21 08:33N 36°29' W 008°56'1717.0
2015-Jun-21 07:33N 36°35' W 009°16'1717.0
2015-Jun-21 06:33N 36°46' W 009°32'1717.1
2015-Jun-21 05:33N 37°02' W 009°38'1717.4
2015-Jun-21 04:33N 37°19' W 009°44'1817.6
2015-Jun-21 03:33N 37°36' W 009°47'1817.9
2015-Jun-21 02:33N 37°54' W 009°52'1818.2
2015-Jun-21 01:33N 38°12' W 009°57'1817.8
2015-Jun-21 00:33N 38°29' W 010°02'1817.7
2015-Jun-20 23:33N 38°46' W 010°05'1817.8
2015-Jun-20 22:33N 39°04' W 010°06'1817.7
2015-Jun-20 21:33N 39°22' W 010°07'1717.4
2015-Jun-20 20:33N 39°39' W 010°07'1817.6
2015-Jun-20 19:33N 39°57' W 010°08'1817.5
2015-Jun-20 18:33N 40°15' W 010°06'1817.7
2015-Jun-20 17:33N 40°32' W 010°06'1817.7
2015-Jun-20 16:33N 40°50' W 010°07'1717.5
2015-Jun-20 15:33N 41°07' W 010°06'12117.2
2015-Jun-20 08:31N 43°08' W 010°06'1716.4
2015-Jun-20 07:29N 43°24' W 010°00'1617.0
2015-Jun-20 06:33N 43°38' W 009°50'1716.8
2015-Jun-20 05:33N 43°53' W 009°39'1717.2
2015-Jun-20 04:33N 44°08' W 009°28'1817.1
2015-Jun-20 03:32N 44°24' W 009°17'1717.2
2015-Jun-20 02:33N 44°39' W 009°06'1917.3
2015-Jun-20 01:27N 44°56' W 008°54'1717.5
2015-Jun-20 00:28N 45°11' W 008°42'28917.0
2015-Jun-19 07:26N 49°15' W 004°54'1314.0
2015-Jun-19 06:28N 49°22' W 004°37'1314.1
2015-Jun-19 05:33N 49°28' W 004°19'1514.9
2015-Jun-19 04:31N 49°36' W 003°59'1916.3
2015-Jun-19 03:23N 49°45' W 003°34'1417.3
2015-Jun-19 02:34N 49°52' W 003°15'1817.6
2015-Jun-19 01:31N 50°00' W 002°49'1616.8
2015-Jun-19 00:34N 50°04' W 002°25'1715.1
2015-Jun-18 23:25N 50°08' W 001°59'2513.3
2015-Jun-18 21:33N 50°22' W 001°26'1312.6
2015-Jun-18 20:33N 50°29' W 001°10'1312.9
2015-Jun-18 19:33N 50°38' W 000°55'1212.0
2015-Jun-18 18:33N 50°45' W 001°09'9 9.4
2015-Jun-18 17:33N 50°51' W 001°21'3 2.5
2015-Jun-18 16:20N 50°54' W 001°24'0 0.0
2015-Jun-18 15:32N 50°53' W 001°24'0 0.0
2015-Jun-18 14:32N 50°53' W 001°24'0 0.0
2015-Jun-18 13:32N 50°53' W 001°24'0 0.0
2015-Jun-18 12:32N 50°53' W 001°24'0 0.0
2015-Jun-18 11:32N 50°53' W 001°24'0 0.0
2015-Jun-18 10:32N 50°53' W 001°24'0 0.0
2015-Jun-18 09:32N 50°53' W 001°24'0 0.0
2015-Jun-18 08:32N 50°53' W 001°24'0 0.0
2015-Jun-18 07:32N 50°53' W 001°24'0 0.0
2015-Jun-18 06:32N 50°53' W 001°24'0 0.1
2015-Jun-18 05:33N 50°53' W 001°24'6 5.7
2015-Jun-18 04:33N 50°49' W 001°18'9 9.3
2015-Jun-18 03:33N 50°44' W 001°05'1010.1
2015-Jun-18 02:33N 50°38' W 000°53'10 9.9
2015-Jun-18 01:33N 50°31' W 000°41'3014.4
2015-Jun-17 23:26N 50°33' E 000°06'1214.0
2015-Jun-17 22:33N 50°37' E 000°25'1413.6
2015-Jun-17 21:34N 50°42' E 000°45'1413.6
2015-Jun-17 20:34N 50°50' E 001°02'1515.1
2015-Jun-17 19:34N 51°01' E 001°20'1615.7
2015-Jun-17 18:33N 51°10' E 001°40'1515.5
2015-Jun-17 17:34N 51°23' E 001°53'  
Track history (hours):
 
Tides and Currents Weather Stations Pressure Air Temp Water Temp Dewpoint Dewpoint Depression Visibility Wind Speed Wind Dir Waves Ship Positions

Hoegh Transporter

Last reported at 2015-Jun-27 17:22 UTC. Time now 2015-Jul-05 23:20 UTC.
Position N 31°22' E 032°20'.
Warning: this ship's position is 8 days out of date.

Length 199 m; draft 9.5 m.

Type: Cargo ship. MMSI: 257712000.

Date/timePositionNaut miles runAvg speedWind from/ knotsBaromVisibWave heightAir tempDewpointWater temp
2015-Jun-27 17:22N 31°22' E 032°20'0 0.0
2015-Jun-27 11:30N 31°21' E 032°20'0 0.0
2015-Jun-27 10:30N 31°21' E 032°20'0 0.0
2015-Jun-27 09:33N 31°21' E 032°20'0 0.0
2015-Jun-27 07:06N 31°21' E 032°20'0 0.0
2015-Jun-27 06:33N 31°21' E 032°20'0 0.0
2015-Jun-26 16:32N 31°21' E 032°20'4 3.5
2015-Jun-26 15:22N 31°26' E 032°19'1010.6
2015-Jun-26 14:23N 31°33' E 032°10'1416.9
2015-Jun-26 13:33N 31°43' E 031°59'12316.4
2015-Jun-26 06:03N 32°22' E 029°41'45116.3
2015-Jun-25 02:29N 34°39' E 021°06'2016.1
2015-Jun-25 01:14N 34°45' E 020°42'1116.2
2015-Jun-25 00:33N 34°48' E 020°30'1616.3
2015-Jun-24 23:33N 34°53' E 020°11'3316.5
2015-Jun-24 21:33N 35°03' E 019°33'1615.8
2015-Jun-24 20:33N 35°08' E 019°14'1615.8
2015-Jun-24 19:33N 35°13' E 018°56'1816.0
2015-Jun-24 18:24N 35°18' E 018°35'1416.1
2015-Jun-24 17:33N 35°22' E 018°19'1816.6
2015-Jun-24 16:27N 35°28' E 017°57'1517.3
2015-Jun-24 15:34N 35°33' E 017°39'1817.3
2015-Jun-24 14:33N 35°38' E 017°19'1717.1
2015-Jun-24 13:33N 35°43' E 016°59'1716.9
2015-Jun-24 12:33N 35°48' E 016°39'1717.0
2015-Jun-24 11:33N 35°54' E 016°19'1716.7
2015-Jun-24 10:33N 35°59' E 015°59'1716.6
2015-Jun-24 09:33N 36°04' E 015°40'1716.7
2015-Jun-24 08:32N 36°09' E 015°20'1717.0
2015-Jun-24 07:33N 36°13' E 014°60'1717.3
2015-Jun-24 06:33N 36°19' E 014°40'1717.4
2015-Jun-24 05:33N 36°24' E 014°19'1717.1
2015-Jun-24 04:34N 36°29' E 013°59'1717.0
2015-Jun-24 03:33N 36°35' E 013°39'1717.0
2015-Jun-24 02:34N 36°40' E 013°19'1717.1
2015-Jun-24 01:33N 36°45' E 012°58'1717.1
2015-Jun-24 00:34N 36°50' E 012°38'1717.2
2015-Jun-23 23:33N 36°55' E 012°17'1716.7
2015-Jun-23 22:34N 37°01' E 011°58'1716.8
2015-Jun-23 21:33N 37°09' E 011°39'1716.9
2015-Jun-23 20:33N 37°18' E 011°21'1616.3
2015-Jun-23 19:33N 37°25' E 011°02'816.8
2015-Jun-23 19:06N 37°26' E 010°53'40017.0
2015-Jun-22 19:33N 36°56' E 002°32'1616.1
2015-Jun-22 18:33N 36°53' E 002°12'1616.1
2015-Jun-22 17:33N 36°51' E 001°52'1616.0
2015-Jun-22 16:33N 36°48' E 001°33'1616.4
2015-Jun-22 15:33N 36°46' E 001°12'1615.7
2015-Jun-22 14:33N 36°44' E 000°53'1616.1
2015-Jun-22 13:33N 36°42' E 000°33'1616.0
2015-Jun-22 12:33N 36°39' E 000°13'1615.5
2015-Jun-22 11:33N 36°37' W 000°06'1515.0
2015-Jun-22 10:33N 36°35' W 000°24'1515.3
2015-Jun-22 09:33N 36°32' W 000°43'1615.5
2015-Jun-22 08:33N 36°30' W 001°02'4414.6
2015-Jun-22 05:33N 36°24' W 001°56'1414.4
2015-Jun-22 04:33N 36°22' W 002°13'1514.4
2015-Jun-22 03:32N 36°19' W 002°31'1514.8
2015-Jun-22 02:33N 36°17' W 002°49'11316.0
2015-Jun-21 19:30N 36°00' W 005°08'1617.2
2015-Jun-21 18:33N 35°58' W 005°28'3816.9
2015-Jun-21 16:20N 35°54' W 006°14'1417.9
2015-Jun-21 15:33N 35°56' W 006°31'2617.8
2015-Jun-21 14:05N 36°03' W 007°02'917.4
2015-Jun-21 13:33N 36°06' W 007°13'1817.1
2015-Jun-21 12:31N 36°11' W 007°34'1717.5
2015-Jun-21 11:33N 36°15' W 007°54'1717.4
2015-Jun-21 10:33N 36°20' W 008°15'1717.2
2015-Jun-21 09:33N 36°24' W 008°35'1717.1
2015-Jun-21 08:33N 36°29' W 008°56'1717.0
2015-Jun-21 07:33N 36°35' W 009°16'1717.0
2015-Jun-21 06:33N 36°46' W 009°32'1717.1
2015-Jun-21 05:33N 37°02' W 009°38'1717.4
2015-Jun-21 04:33N 37°19' W 009°44'1817.6
2015-Jun-21 03:33N 37°36' W 009°47'1817.9
2015-Jun-21 02:33N 37°54' W 009°52'1818.2
2015-Jun-21 01:33N 38°12' W 009°57'1817.8
2015-Jun-21 00:33N 38°29' W 010°02'1817.7
2015-Jun-20 23:33N 38°46' W 010°05'1817.8
2015-Jun-20 22:33N 39°04' W 010°06'1817.7
2015-Jun-20 21:33N 39°22' W 010°07'1717.4
2015-Jun-20 20:33N 39°39' W 010°07'1817.6
2015-Jun-20 19:33N 39°57' W 010°08'1817.5
2015-Jun-20 18:33N 40°15' W 010°06'1817.7
2015-Jun-20 17:33N 40°32' W 010°06'1817.7
2015-Jun-20 16:33N 40°50' W 010°07'1717.5
2015-Jun-20 15:33N 41°07' W 010°06'12117.2
2015-Jun-20 08:31N 43°08' W 010°06'1716.4
2015-Jun-20 07:29N 43°24' W 010°00'1617.0
2015-Jun-20 06:33N 43°38' W 009°50'1716.8
2015-Jun-20 05:33N 43°53' W 009°39'1717.2
2015-Jun-20 04:33N 44°08' W 009°28'1817.1
2015-Jun-20 03:32N 44°24' W 009°17'1717.2
2015-Jun-20 02:33N 44°39' W 009°06'1917.3
2015-Jun-20 01:27N 44°56' W 008°54'1717.5
2015-Jun-20 00:28N 45°11' W 008°42'28917.0
2015-Jun-19 07:26N 49°15' W 004°54'1314.0
2015-Jun-19 06:28N 49°22' W 004°37'1314.1
2015-Jun-19 05:33N 49°28' W 004°19'1514.9
2015-Jun-19 04:31N 49°36' W 003°59'1916.3
2015-Jun-19 03:23N 49°45' W 003°34'1417.3
2015-Jun-19 02:34N 49°52' W 003°15'1817.6
2015-Jun-19 01:31N 50°00' W 002°49'1616.8
2015-Jun-19 00:34N 50°04' W 002°25'1715.1
2015-Jun-18 23:25N 50°08' W 001°59'2513.3
2015-Jun-18 21:33N 50°22' W 001°26'1312.6
2015-Jun-18 20:33N 50°29' W 001°10'1312.9
2015-Jun-18 19:33N 50°38' W 000°55'1212.0
2015-Jun-18 18:33N 50°45' W 001°09'9 9.4
2015-Jun-18 17:33N 50°51' W 001°21'3 2.5
2015-Jun-18 16:20N 50°54' W 001°24'0 0.0
2015-Jun-18 15:32N 50°53' W 001°24'0 0.0
2015-Jun-18 14:32N 50°53' W 001°24'0 0.0
2015-Jun-18 13:32N 50°53' W 001°24'0 0.0
2015-Jun-18 12:32N 50°53' W 001°24'0 0.0
2015-Jun-18 11:32N 50°53' W 001°24'0 0.0
2015-Jun-18 10:32N 50°53' W 001°24'0 0.0
2015-Jun-18 09:32N 50°53' W 001°24'0 0.0
2015-Jun-18 08:32N 50°53' W 001°24'0 0.0
2015-Jun-18 07:32N 50°53' W 001°24'0 0.0
2015-Jun-18 06:32N 50°53' W 001°24'0 0.1
2015-Jun-18 05:33N 50°53' W 001°24'6 5.7
2015-Jun-18 04:33N 50°49' W 001°18'9 9.3
2015-Jun-18 03:33N 50°44' W 001°05'1010.1
2015-Jun-18 02:33N 50°38' W 000°53'10 9.9
2015-Jun-18 01:33N 50°31' W 000°41'3014.4
2015-Jun-17 23:26N 50°33' E 000°06'1214.0
2015-Jun-17 22:33N 50°37' E 000°25'1413.6
2015-Jun-17 21:34N 50°42' E 000°45'1413.6
2015-Jun-17 20:34N 50°50' E 001°02'1515.1
2015-Jun-17 19:34N 51°01' E 001°20'1615.7
2015-Jun-17 18:33N 51°10' E 001°40'1515.5
2015-Jun-17 17:34N 51°23' E 001°53'  

Dump ship's entire track history